createdAt,value
2018-08-25T00:02:03.307Z,79.38
2018-08-25T00:04:31.811Z,80.14
2018-08-25T00:07:00.411Z,81.01
2018-08-25T00:09:29.287Z,81.52
2018-08-25T00:11:57.854Z,81.54
2018-08-25T00:14:26.558Z,81.35
2018-08-25T00:16:55.090Z,81.59
2018-08-25T00:19:24.214Z,79.76
2018-08-25T00:21:52.761Z,79.73
2018-08-25T00:24:21.610Z,80.21
2018-08-25T00:26:50.163Z,80.86
2018-08-25T00:29:18.656Z,80.60
2018-08-25T00:31:47.601Z,80.69
2018-08-25T00:34:16.091Z,81.72
2018-08-25T00:36:44.586Z,81.14
2018-08-25T00:39:13.085Z,81.24
2018-08-25T00:41:41.634Z,81.51
2018-08-25T00:44:10.912Z,81.65
2018-08-25T00:46:39.414Z,81.09
2018-08-25T00:49:07.959Z,79.67
2018-08-25T00:51:36.592Z,79.70
2018-08-25T00:54:05.198Z,80.10
2018-08-25T00:56:33.735Z,80.03
2018-08-25T00:59:02.475Z,79.75
2018-08-25T01:01:31.037Z,79.18
2018-08-25T01:03:59.975Z,79.27
2018-08-25T01:06:28.631Z,79.01
2018-08-25T01:08:57.224Z,78.69
2018-08-25T01:11:25.758Z,78.90
2018-08-25T01:13:54.465Z,78.52
2018-08-25T01:16:23.084Z,78.62
2018-08-25T01:18:51.638Z,78.68
2018-08-25T01:21:20.192Z,78.58
2018-08-25T01:23:48.730Z,78.58
2018-08-25T01:26:17.407Z,78.96
2018-08-25T01:28:45.932Z,78.49
2018-08-25T01:31:14.500Z,78.17
2018-08-25T01:33:42.987Z,77.69
2018-08-25T01:36:11.540Z,78.26
2018-08-25T01:38:40.111Z,78.50
2018-08-25T01:41:08.652Z,79.00
2018-08-25T01:43:37.187Z,79.25
2018-08-25T01:46:05.734Z,79.44
2018-08-25T01:48:34.445Z,79.04
2018-08-25T01:51:03.001Z,79.19
2018-08-25T01:53:31.479Z,78.36
2018-08-25T01:56:00.309Z,78.20
2018-08-25T01:58:28.889Z,78.05
2018-08-25T02:00:57.398Z,78.47
2018-08-25T02:03:26.006Z,78.51
2018-08-25T02:05:54.534Z,78.64
2018-08-25T02:08:23.109Z,78.73
2018-08-25T02:10:51.882Z,78.92
2018-08-25T02:13:20.406Z,79.36
2018-08-25T02:15:49.497Z,78.87
2018-08-25T02:18:18.015Z,78.37
2018-08-25T02:20:46.517Z,77.91
2018-08-25T02:23:15.022Z,77.72
2018-08-25T02:25:43.534Z,78.24
2018-08-25T02:28:12.174Z,79.80
2018-08-25T02:30:40.661Z,81.70
2018-08-25T02:33:09.198Z,81.64
2018-08-25T02:35:37.714Z,81.80
2018-08-25T02:38:06.271Z,81.65
2018-08-25T02:40:34.822Z,82.32
2018-08-25T02:43:03.355Z,83.22
2018-08-25T02:45:31.851Z,83.18
2018-08-25T02:48:00.383Z,83.46
2018-08-25T02:50:28.872Z,83.88
2018-08-25T02:52:57.325Z,83.56
2018-08-25T02:55:25.834Z,83.06
2018-08-25T02:57:54.381Z,83.05
2018-08-25T03:00:22.928Z,83.09
2018-08-25T03:02:51.394Z,83.43
2018-08-25T03:05:19.845Z,83.43
2018-08-25T03:07:48.314Z,83.72
2018-08-25T03:10:16.768Z,83.00
2018-08-25T03:12:45.282Z,83.60
2018-08-25T03:15:13.741Z,83.90
2018-08-25T03:17:42.242Z,84.07
2018-08-25T03:20:10.757Z,84.22
2018-08-25T03:22:39.257Z,84.54
2018-08-25T03:25:08.176Z,84.51
2018-08-25T03:27:36.661Z,84.16
2018-08-25T03:30:05.227Z,83.34
2018-08-25T03:32:34.568Z,83.35
2018-08-25T03:35:03.029Z,83.45
2018-08-25T03:37:31.559Z,83.34
2018-08-25T03:40:00.031Z,83.68
2018-08-25T03:42:28.509Z,83.35
2018-08-25T03:44:57.057Z,82.75
2018-08-25T03:47:25.629Z,83.01
2018-08-25T03:49:54.107Z,83.17
2018-08-25T03:52:22.609Z,83.08
2018-08-25T03:54:51.101Z,82.65
2018-08-25T03:57:19.616Z,83.50
2018-08-25T03:59:48.141Z,83.59
2018-08-25T04:02:16.653Z,84.57
2018-08-25T04:04:45.150Z,84.13
2018-08-25T04:07:13.610Z,84.00
2018-08-25T04:09:42.113Z,83.81
2018-08-25T04:12:10.581Z,84.00
2018-08-25T04:14:39.063Z,84.65
2018-08-25T04:17:07.564Z,83.71
2018-08-25T04:19:36.029Z,83.00
2018-08-25T04:22:04.572Z,83.64
2018-08-25T04:24:33.025Z,83.98
2018-08-25T04:27:01.508Z,83.93
2018-08-25T04:29:29.994Z,84.09
2018-08-25T04:31:58.881Z,84.47
2018-08-25T04:34:27.421Z,84.84
2018-08-25T04:36:55.933Z,85.04
2018-08-25T04:39:24.416Z,84.99
2018-08-25T04:41:52.921Z,85.38
2018-08-25T04:44:21.433Z,86.02
2018-08-25T04:46:49.949Z,85.74
2018-08-25T04:49:18.868Z,84.81
2018-08-25T04:51:47.385Z,84.36
2018-08-25T04:54:15.941Z,84.23
2018-08-25T04:56:44.504Z,84.31
2018-08-25T04:59:13.016Z,83.70
2018-08-25T05:01:41.547Z,84.14
2018-08-25T05:04:10.009Z,84.08
2018-08-25T05:06:38.472Z,84.43
2018-08-25T05:09:09.336Z,85.05
2018-08-25T05:11:37.853Z,84.29
2018-08-25T05:14:06.383Z,83.40
2018-08-25T05:16:34.846Z,83.86
2018-08-25T05:19:03.361Z,83.33
2018-08-25T05:21:31.857Z,83.94
2018-08-25T05:24:00.321Z,84.24
2018-08-25T05:26:29.252Z,84.53
2018-08-25T05:28:57.705Z,84.12
2018-08-25T05:31:26.189Z,84.60
2018-08-25T05:33:55.150Z,84.58
2018-08-25T05:36:23.625Z,85.66
2018-08-25T05:38:52.069Z,85.98
2018-08-25T05:41:20.625Z,85.73
2018-08-25T05:43:49.106Z,86.02
2018-08-25T05:46:17.721Z,86.20
2018-08-25T05:48:46.253Z,86.24
2018-08-25T05:51:14.765Z,86.20
2018-08-25T05:53:43.233Z,85.95
2018-08-25T05:56:11.768Z,86.44
2018-08-25T05:58:40.256Z,85.72
2018-08-25T06:01:09.422Z,86.03
2018-08-25T06:03:37.936Z,86.08
2018-08-25T06:06:06.502Z,85.47
2018-08-25T06:08:35.012Z,85.54
2018-08-25T06:11:03.551Z,86.04
2018-08-25T06:13:32.063Z,86.45
2018-08-25T06:16:00.491Z,86.71
2018-08-25T06:18:29.053Z,86.85
2018-08-25T06:20:57.521Z,87.48
2018-08-25T06:23:25.994Z,87.75
2018-08-25T06:25:54.566Z,87.78
2018-08-25T06:28:23.555Z,87.45
2018-08-25T06:30:52.081Z,87.72
2018-08-25T06:33:20.549Z,87.92
2018-08-25T06:35:49.004Z,87.97
2018-08-25T06:38:17.497Z,87.78
2018-08-25T06:40:45.997Z,87.65
2018-08-25T06:43:14.497Z,86.80
2018-08-25T06:45:43.008Z,87.24
2018-08-25T06:48:11.878Z,86.91
2018-08-25T06:50:40.342Z,86.91
2018-08-25T06:53:08.844Z,87.68
2018-08-25T06:55:37.358Z,87.61
2018-08-25T06:58:06.045Z,87.26
2018-08-25T07:00:34.547Z,87.16
2018-08-25T07:03:03.094Z,87.96
2018-08-25T07:05:31.642Z,87.27
2018-08-25T07:08:00.134Z,87.20
2018-08-25T07:10:28.644Z,87.34
2018-08-25T07:12:57.190Z,87.42
2018-08-25T07:15:25.684Z,86.97
2018-08-25T07:17:54.203Z,86.68
2018-08-25T07:20:23.110Z,86.95
2018-08-25T07:22:51.593Z,87.11
2018-08-25T07:25:20.060Z,86.18
2018-08-25T07:27:48.545Z,86.50
2018-08-25T07:30:17.046Z,86.48
2018-08-25T07:32:45.523Z,86.54
2018-08-25T07:35:14.133Z,87.03
2018-08-25T07:37:42.657Z,86.83
2018-08-25T07:40:11.141Z,86.39
2018-08-25T07:42:39.665Z,86.46
2018-08-25T07:45:08.640Z,85.48
2018-08-25T07:47:37.165Z,85.12
2018-08-25T07:50:06.349Z,84.77
2018-08-25T07:52:34.873Z,84.06
2018-08-25T07:55:03.397Z,84.10
2018-08-25T07:57:31.928Z,83.45
2018-08-25T08:00:00.426Z,83.75
2018-08-25T08:02:28.940Z,83.44
2018-08-25T08:04:57.434Z,83.63
2018-08-25T08:07:25.916Z,82.66
2018-08-25T08:09:54.432Z,81.57
2018-08-25T08:12:23.022Z,81.73
2018-08-25T08:14:51.433Z,81.77
2018-08-25T08:17:19.930Z,82.54
2018-08-25T08:19:48.417Z,81.51
2018-08-25T08:22:16.977Z,82.51
2018-08-25T08:24:45.462Z,80.04
2018-08-25T08:27:13.925Z,78.63
2018-08-25T08:29:42.743Z,78.61
2018-08-25T08:32:11.211Z,76.97
2018-08-25T08:34:39.672Z,75.57
2018-08-25T08:37:08.318Z,74.55
2018-08-25T08:39:38.504Z,75.24
2018-08-25T08:42:07.303Z,76.11
2018-08-25T08:44:35.773Z,77.11
2018-08-25T08:47:04.561Z,75.59
2018-08-25T08:49:33.053Z,73.76
2018-08-25T08:52:01.579Z,73.67
2018-08-25T08:54:30.105Z,74.42
2018-08-25T08:56:58.585Z,75.95
2018-08-25T08:59:27.657Z,74.26
2018-08-25T09:01:56.286Z,74.15
2018-08-25T09:04:24.827Z,74.35
2018-08-25T09:06:53.345Z,74.64
2018-08-25T09:09:21.834Z,75.59
2018-08-25T09:11:50.387Z,74.91
2018-08-25T09:14:18.858Z,71.87
2018-08-25T09:16:47.358Z,71.29
2018-08-25T09:19:15.873Z,72.20
2018-08-25T09:21:44.422Z,74.06
2018-08-25T09:24:12.926Z,74.07
2018-08-25T09:26:41.413Z,73.74
2018-08-25T09:29:09.895Z,70.48
2018-08-25T09:31:38.360Z,69.10
2018-08-25T09:34:06.910Z,66.09
2018-08-25T09:36:35.617Z,67.46
2018-08-25T09:39:04.573Z,65.85
2018-08-25T09:41:33.137Z,65.13
2018-08-25T09:44:01.645Z,65.68
2018-08-25T09:46:30.108Z,65.37
2018-08-25T09:48:58.785Z,69.08
2018-08-25T09:51:27.237Z,68.90
2018-08-25T09:53:55.713Z,69.95
2018-08-25T09:56:24.226Z,69.28
2018-08-25T09:58:52.713Z,68.63
2018-08-25T10:01:26.795Z,67.49
2018-08-25T10:03:55.301Z,69.36
2018-08-25T10:06:23.786Z,67.80
2018-08-25T10:08:52.417Z,68.17
2018-08-25T10:11:21.081Z,71.23
2018-08-25T10:13:49.566Z,70.53
2018-08-25T10:16:18.086Z,69.77
2018-08-25T10:18:46.593Z,68.22
2018-08-25T10:21:15.106Z,68.61
2018-08-25T10:23:43.854Z,68.49
2018-08-25T10:26:12.325Z,66.28
2018-08-25T10:28:40.834Z,66.71
2018-08-25T10:31:09.293Z,65.55
2018-08-25T10:33:37.796Z,65.13
2018-08-25T10:36:06.378Z,63.86
2018-08-25T10:38:35.012Z,61.62
2018-08-25T10:41:03.552Z,61.24
2018-08-25T10:43:32.030Z,60.19
2018-08-25T10:46:00.566Z,60.06
2018-08-25T10:48:29.121Z,60.31
2018-08-25T10:50:58.406Z,63.36
2018-08-25T10:53:26.926Z,71.56
2018-08-25T10:55:55.435Z,75.51
2018-08-25T10:58:23.933Z,73.01
2018-08-25T11:00:52.589Z,74.39
2018-08-25T11:03:20.970Z,71.16
2018-08-25T11:05:49.529Z,70.69
2018-08-25T11:08:17.993Z,68.47
2018-08-25T11:10:47.562Z,68.66
2018-08-25T11:13:16.059Z,64.78
2018-08-25T11:15:44.513Z,66.06
2018-08-25T11:18:13.041Z,66.71
2018-08-25T11:20:41.541Z,64.99
2018-08-25T11:23:10.038Z,65.46
2018-08-25T11:25:38.553Z,67.43
2018-08-25T11:28:07.087Z,69.85
2018-08-25T11:30:35.660Z,64.52
2018-08-25T11:33:04.287Z,65.21
2018-08-25T11:35:32.774Z,66.02
2018-08-25T11:38:01.398Z,67.60
2018-08-25T11:40:29.829Z,66.44
2018-08-25T11:42:58.352Z,62.82
2018-08-25T11:45:26.906Z,62.36
2018-08-25T11:47:55.391Z,59.10
2018-08-25T11:50:23.875Z,62.12
2018-08-25T11:52:52.442Z,62.00
2018-08-25T11:55:21.026Z,63.12
2018-08-25T11:57:49.633Z,61.25
2018-08-25T12:00:18.189Z,60.23
2018-08-25T12:02:46.656Z,60.95
2018-08-25T12:05:15.146Z,62.13
2018-08-25T12:07:43.728Z,62.77
2018-08-25T12:10:12.222Z,58.03
2018-08-25T12:12:40.757Z,55.64
2018-08-25T12:15:09.290Z,56.85
2018-08-25T12:17:38.029Z,63.56
2018-08-25T12:20:06.950Z,68.31
2018-08-25T12:22:35.480Z,70.42
2018-08-25T12:25:03.991Z,69.90
2018-08-25T12:27:32.445Z,70.61
2018-08-25T12:30:01.015Z,71.61
2018-08-25T12:32:29.619Z,71.35
2018-08-25T12:34:58.162Z,72.60
2018-08-25T12:37:26.733Z,73.29
2018-08-25T12:39:55.708Z,72.67
2018-08-25T12:42:24.254Z,70.61
2018-08-25T12:44:52.757Z,68.83
2018-08-25T12:47:24.370Z,68.11
2018-08-25T12:49:54.041Z,67.11
2018-08-25T12:52:22.847Z,62.47
2018-08-25T12:54:51.365Z,64.99
2018-08-25T12:57:20.745Z,61.16
2018-08-25T12:59:49.263Z,62.31
2018-08-25T13:02:17.774Z,61.14
2018-08-25T13:04:46.245Z,56.84
2018-08-25T13:07:15.326Z,59.69
2018-08-25T13:09:45.183Z,60.83
2018-08-25T13:12:14.124Z,62.21
2018-08-25T13:14:43.444Z,65.31
2018-08-25T13:17:11.923Z,72.30
2018-08-25T13:19:40.403Z,77.69
2018-08-25T13:22:08.933Z,78.74
2018-08-25T13:24:37.410Z,76.78
2018-08-25T13:27:05.888Z,78.41
2018-08-25T13:29:34.410Z,80.72
2018-08-25T13:32:02.933Z,79.36
2018-08-25T13:34:31.437Z,81.59
2018-08-25T13:36:59.985Z,80.15
2018-08-25T13:39:28.525Z,80.69
2018-08-25T13:41:57.149Z,79.92
2018-08-25T13:44:25.697Z,79.10
2018-08-25T13:46:54.239Z,78.39
2018-08-25T13:49:22.780Z,77.31
2018-08-25T13:51:51.300Z,75.02
2018-08-25T13:54:19.806Z,74.51
2018-08-25T13:56:48.278Z,73.83
2018-08-25T13:59:16.784Z,75.17
2018-08-25T14:01:45.261Z,75.85
2018-08-25T14:04:13.705Z,73.98
2018-08-25T14:06:42.202Z,72.98
2018-08-25T14:09:10.746Z,74.90
2018-08-25T14:11:39.249Z,76.52
2018-08-25T14:14:07.698Z,78.34
2018-08-25T14:16:36.152Z,80.67
2018-08-25T14:19:04.841Z,80.98
2018-08-25T14:21:33.352Z,80.68
2018-08-25T14:24:01.831Z,80.62
2018-08-25T14:26:30.438Z,81.85
2018-08-25T14:28:59.028Z,82.88
2018-08-25T14:31:27.860Z,81.62
2018-08-25T14:33:56.377Z,81.31
2018-08-25T14:36:24.968Z,79.84
2018-08-25T14:38:53.522Z,78.59
2018-08-25T14:41:21.992Z,76.21
2018-08-25T14:43:50.517Z,74.31
2018-08-25T14:46:19.062Z,75.13
2018-08-25T14:48:47.525Z,72.32
2018-08-25T14:51:16.076Z,71.90
2018-08-25T14:53:44.718Z,72.85
2018-08-25T14:56:13.334Z,72.45
2018-08-25T14:58:41.845Z,74.54
2018-08-25T15:01:10.305Z,73.60
2018-08-25T15:03:38.786Z,74.26
2018-08-25T15:06:07.242Z,72.59
2018-08-25T15:08:36.123Z,75.57
2018-08-25T15:11:04.606Z,73.82
2018-08-25T15:13:33.109Z,76.35
2018-08-25T15:16:01.612Z,75.28
2018-08-25T15:18:30.408Z,71.72
2018-08-25T15:20:58.887Z,76.18
2018-08-25T15:23:27.364Z,74.97
2018-08-25T15:25:55.890Z,74.04
2018-08-25T15:28:24.415Z,71.46
2018-08-25T15:30:52.932Z,71.76
2018-08-25T15:33:21.518Z,73.50
2018-08-25T15:35:50.065Z,71.04
2018-08-25T15:38:18.525Z,69.53
2018-08-25T15:40:47.016Z,68.12
2018-08-25T15:43:15.517Z,68.90
2018-08-25T15:45:44.367Z,72.83
2018-08-25T15:48:12.869Z,69.91
2018-08-25T15:50:41.489Z,71.94
2018-08-25T15:53:09.986Z,71.07
2018-08-25T15:55:38.437Z,75.22
2018-08-25T15:58:07.350Z,78.18
2018-08-25T16:00:35.837Z,77.65
2018-08-25T16:03:04.301Z,76.77
2018-08-25T16:05:32.842Z,77.55
2018-08-25T16:08:01.332Z,78.72
2018-08-25T16:10:29.830Z,78.78
2018-08-25T16:12:58.306Z,79.64
2018-08-25T16:15:26.837Z,79.21
2018-08-25T16:17:55.369Z,76.83
2018-08-25T16:20:23.906Z,76.36
2018-08-25T16:22:52.429Z,75.21
2018-08-25T16:25:20.994Z,74.92
2018-08-25T16:27:49.461Z,74.75
2018-08-25T16:30:17.958Z,75.55
2018-08-25T16:32:46.501Z,74.51
2018-08-25T16:35:14.961Z,72.65
2018-08-25T16:37:43.626Z,74.05
2018-08-25T16:40:12.406Z,74.44
2018-08-25T16:42:40.921Z,76.82
2018-08-25T16:45:09.401Z,76.82
2018-08-25T16:47:37.913Z,75.69
2018-08-25T16:50:06.800Z,76.49
2018-08-25T16:52:35.269Z,75.69
2018-08-25T16:55:03.854Z,77.46
2018-08-25T16:57:32.300Z,76.82
2018-08-25T17:00:00.784Z,76.58
2018-08-25T17:02:29.655Z,77.91
2018-08-25T17:04:58.151Z,78.37
2018-08-25T17:07:26.617Z,78.44
2018-08-25T17:09:55.314Z,77.13
2018-08-25T17:12:23.881Z,77.69
2018-08-25T17:14:52.393Z,78.16
2018-08-25T17:17:20.896Z,77.92
2018-08-25T17:19:49.369Z,79.11
2018-08-25T17:22:17.860Z,79.50
2018-08-25T17:24:46.428Z,79.92
2018-08-25T17:27:14.909Z,79.67
2018-08-25T17:29:43.437Z,80.05
2018-08-25T17:32:11.982Z,80.52
2018-08-25T17:34:40.465Z,80.92
2018-08-25T17:37:08.965Z,81.55
2018-08-25T17:39:37.454Z,80.60
2018-08-25T17:42:06.016Z,80.66
2018-08-25T17:44:34.480Z,81.65
2018-08-25T17:47:02.965Z,82.41
2018-08-25T17:49:31.487Z,81.40
2018-08-25T17:51:59.972Z,81.22
2018-08-25T17:54:28.470Z,81.91
2018-08-25T17:56:57.107Z,80.27
2018-08-25T17:59:25.532Z,80.41
2018-08-25T18:01:54.075Z,80.32
2018-08-25T18:04:22.581Z,80.33
2018-08-25T18:06:51.036Z,79.94
2018-08-25T18:09:19.521Z,80.94
2018-08-25T18:11:48.055Z,81.91
2018-08-25T18:14:16.541Z,82.23
2018-08-25T18:16:45.061Z,82.96
2018-08-25T18:19:13.541Z,82.26
2018-08-25T18:21:42.419Z,82.43
2018-08-25T18:24:10.947Z,82.70
2018-08-25T18:26:39.423Z,82.88
2018-08-25T18:29:07.997Z,83.32
2018-08-25T18:31:36.496Z,83.67
2018-08-25T18:34:04.998Z,83.76
2018-08-25T18:36:33.526Z,83.35
2018-08-25T18:39:02.073Z,83.43
2018-08-25T18:41:30.574Z,83.49
2018-08-25T18:43:59.042Z,84.24
2018-08-25T18:46:27.670Z,83.72
2018-08-25T18:48:56.203Z,83.63
2018-08-25T18:51:24.717Z,84.12
2018-08-25T18:53:53.307Z,84.63
2018-08-25T18:56:21.770Z,83.99
2018-08-25T18:58:50.385Z,85.05
2018-08-25T19:01:18.877Z,84.68
2018-08-25T19:03:47.381Z,84.97
2018-08-25T19:06:15.900Z,84.77
2018-08-25T19:08:44.405Z,84.50
2018-08-25T19:11:12.925Z,84.44
2018-08-25T19:13:41.389Z,84.65
2018-08-25T19:16:10.279Z,84.99
2018-08-25T19:18:38.724Z,84.67
2018-08-25T19:21:07.338Z,85.20
2018-08-25T19:23:35.815Z,85.82
2018-08-25T19:26:04.284Z,85.36
2018-08-25T19:28:32.776Z,85.60
2018-08-25T19:31:01.242Z,85.47
2018-08-25T19:33:29.768Z,85.52
2018-08-25T19:35:58.262Z,85.74
2018-08-25T19:38:26.784Z,85.96
2018-08-25T19:40:55.317Z,86.22
2018-08-25T19:43:23.898Z,86.75
2018-08-25T19:45:52.768Z,86.97
2018-08-25T19:48:21.327Z,86.44
2018-08-25T19:50:49.849Z,86.62
2018-08-25T19:53:18.320Z,86.58
2018-08-25T19:55:46.820Z,86.96
2018-08-25T19:58:15.313Z,86.50
2018-08-25T20:00:43.800Z,87.29
2018-08-25T20:03:12.309Z,87.91
2018-08-25T20:05:40.967Z,87.57
2018-08-25T20:08:09.325Z,87.56
2018-08-25T20:10:37.825Z,87.87
2018-08-25T20:13:06.468Z,87.90
2018-08-25T20:15:34.967Z,87.63
2018-08-25T20:18:03.521Z,87.77
2018-08-25T20:20:32.088Z,88.28
2018-08-25T20:23:00.557Z,88.17
2018-08-25T20:25:29.016Z,88.22
2018-08-25T20:27:57.557Z,88.41
2018-08-25T20:30:26.101Z,88.47
2018-08-25T20:32:54.549Z,88.68
2018-08-25T20:35:23.426Z,88.95
2018-08-25T20:37:51.877Z,88.52
2018-08-25T20:40:20.385Z,88.80
2018-08-25T20:42:48.883Z,88.63
2018-08-25T20:45:17.355Z,88.98
2018-08-25T20:47:45.801Z,88.53
2018-08-25T20:50:14.337Z,88.71
2018-08-25T20:52:42.832Z,88.68
2018-08-25T20:55:11.361Z,88.71
2018-08-25T20:57:39.795Z,88.66
2018-08-25T21:00:08.762Z,89.02
2018-08-25T21:02:37.231Z,88.93
2018-08-25T21:05:05.728Z,89.11
2018-08-25T21:07:34.269Z,88.93
2018-08-25T21:10:02.778Z,89.03
2018-08-25T21:12:31.238Z,89.37
2018-08-25T21:14:59.761Z,89.13
2018-08-25T21:17:28.248Z,89.13
2018-08-25T21:19:56.790Z,89.38
2018-08-25T21:22:25.259Z,88.73
2018-08-25T21:24:53.718Z,88.48
2018-08-25T21:27:22.230Z,88.59
2018-08-25T21:29:50.742Z,88.93
2018-08-25T21:32:19.221Z,88.71
2018-08-25T21:34:47.695Z,89.10
2018-08-25T21:37:16.245Z,89.24
2018-08-25T21:39:44.699Z,88.63
2018-08-25T21:42:13.156Z,88.37
2018-08-25T21:44:41.634Z,88.36
2018-08-25T21:47:10.126Z,87.68
2018-08-25T21:49:38.666Z,88.34
2018-08-25T21:52:07.199Z,88.53
2018-08-25T21:54:35.649Z,87.99
2018-08-25T21:57:04.530Z,88.21
2018-08-25T21:59:32.986Z,87.96
2018-08-25T22:02:01.446Z,88.49
2018-08-25T22:04:30.325Z,88.53
2018-08-25T22:06:58.867Z,88.77
2018-08-25T22:09:27.350Z,88.29
2018-08-25T22:11:55.974Z,88.50
2018-08-25T22:14:24.520Z,88.74
2018-08-25T22:16:53.162Z,89.27
2018-08-25T22:19:22.710Z,89.59
2018-08-25T22:21:51.149Z,89.50
2018-08-25T22:24:19.638Z,89.65
2018-08-25T22:26:48.135Z,89.50
2018-08-25T22:29:16.607Z,89.84
2018-08-25T22:31:45.533Z,89.86
2018-08-25T22:34:13.990Z,89.53
2018-08-25T22:36:42.491Z,89.43
2018-08-25T22:39:12.313Z,89.18
2018-08-25T22:41:40.955Z,89.44
2018-08-25T22:44:10.201Z,89.42
2018-08-25T22:46:38.869Z,89.42
2018-08-25T22:49:07.804Z,88.93
2018-08-25T22:51:36.309Z,89.08
2018-08-25T22:54:04.869Z,89.02
2018-08-25T22:56:33.361Z,89.37
2018-08-25T22:59:01.836Z,89.29
2018-08-25T23:01:30.676Z,89.43
2018-08-25T23:03:59.135Z,89.72
2018-08-25T23:06:27.614Z,89.37
2018-08-25T23:08:56.141Z,89.75
2018-08-25T23:11:24.615Z,89.33
2018-08-25T23:13:53.649Z,89.31
2018-08-25T23:16:22.165Z,89.16
2018-08-25T23:18:51.202Z,89.44
2018-08-25T23:21:19.686Z,88.97
2018-08-25T23:23:48.166Z,89.38
2018-08-25T23:26:16.689Z,89.39
2018-08-25T23:28:45.193Z,89.58
2018-08-25T23:31:13.701Z,89.53
2018-08-25T23:33:42.214Z,90.00
2018-08-25T23:36:10.704Z,89.71
2018-08-25T23:38:39.616Z,89.93
2018-08-25T23:41:08.066Z,89.66
2018-08-25T23:43:36.629Z,89.92
2018-08-25T23:46:05.206Z,89.51
2018-08-25T23:48:33.698Z,89.78
2018-08-25T23:51:02.138Z,89.61
2018-08-25T23:53:30.622Z,89.40
2018-08-25T23:55:59.102Z,90.08
2018-08-25T23:58:27.658Z,90.08
